createdAt,value
2018-05-17T00:00:06.232Z,86.00
2018-05-17T00:01:05.870Z,86.00
2018-05-17T00:02:10.635Z,85.90
2018-05-17T00:03:06.104Z,85.90
2018-05-17T00:04:06.191Z,85.90
2018-05-17T00:05:08.305Z,85.90
2018-05-17T00:06:05.817Z,85.90
2018-05-17T00:07:10.656Z,85.90
2018-05-17T00:08:06.111Z,85.90
2018-05-17T00:09:11.421Z,86.00
2018-05-17T00:10:08.673Z,86.10
2018-05-17T00:11:06.520Z,86.10
2018-05-17T00:12:06.634Z,86.10
2018-05-17T00:13:06.317Z,86.10
2018-05-17T00:14:06.031Z,86.10
2018-05-17T00:15:10.756Z,86.10
2018-05-17T00:16:06.177Z,86.10
2018-05-17T00:17:06.323Z,86.10
2018-05-17T00:18:10.911Z,86.00
2018-05-17T00:19:06.303Z,86.00
2018-05-17T00:20:05.827Z,86.10
2018-05-17T00:21:09.014Z,86.10
2018-05-17T00:22:06.052Z,86.10
2018-05-17T00:23:09.091Z,86.10
2018-05-17T00:24:10.694Z,86.10
2018-05-17T00:25:11.173Z,86.10
2018-05-17T00:26:06.161Z,86.10
2018-05-17T00:27:05.631Z,86.10
2018-05-17T00:28:08.570Z,86.10
2018-05-17T00:29:06.343Z,86.10
2018-05-17T00:30:06.791Z,86.10
2018-05-17T00:31:11.604Z,86.10
2018-05-17T00:32:06.047Z,86.10
2018-05-17T00:33:06.212Z,86.10
2018-05-17T00:34:08.515Z,86.40
2018-05-17T00:35:08.681Z,86.20
2018-05-17T00:36:07.412Z,86.20
2018-05-17T00:37:06.668Z,86.20
2018-05-17T00:38:06.281Z,86.20
2018-05-17T00:39:15.570Z,86.30
2018-05-17T00:40:06.047Z,86.20
2018-05-17T00:41:06.101Z,86.20
2018-05-17T00:42:10.977Z,86.20
2018-05-17T00:43:06.425Z,86.20
2018-05-17T00:44:08.674Z,85.60
2018-05-17T00:45:06.533Z,86.20
2018-05-17T00:46:06.913Z,86.10
2018-05-17T00:47:06.517Z,86.10
2018-05-17T00:48:06.518Z,86.10
2018-05-17T00:49:06.276Z,86.00
2018-05-17T00:50:08.566Z,86.10
2018-05-17T00:51:06.092Z,86.20
2018-05-17T00:52:11.109Z,86.20
2018-05-17T00:53:06.467Z,86.20
2018-05-17T00:54:11.612Z,86.30
2018-05-17T00:55:06.508Z,86.20
2018-05-17T00:56:06.309Z,86.10
2018-05-17T00:57:05.871Z,86.10
2018-05-17T00:58:10.742Z,86.10
2018-05-17T00:59:06.186Z,86.10
2018-05-17T01:00:06.171Z,86.20
2018-05-17T01:01:08.339Z,86.30
2018-05-17T01:02:06.013Z,86.30
2018-05-17T01:03:05.977Z,86.30
2018-05-17T01:04:09.005Z,86.30
2018-05-17T01:05:05.643Z,86.30
2018-05-17T01:06:05.699Z,86.20
2018-05-17T01:07:10.679Z,86.30
2018-05-17T01:08:08.666Z,86.20
2018-05-17T01:09:11.275Z,86.30
2018-05-17T01:10:06.136Z,86.30
2018-05-17T01:11:06.038Z,86.40
2018-05-17T01:12:05.983Z,86.40
2018-05-17T01:13:05.485Z,86.40
2018-05-17T01:14:06.699Z,86.40
2018-05-17T01:15:06.515Z,86.30
2018-05-17T01:16:06.529Z,86.20
2018-05-17T01:17:08.728Z,86.30
2018-05-17T01:18:11.380Z,86.30
2018-05-17T01:19:05.965Z,86.30
2018-05-17T01:20:06.333Z,86.20
2018-05-17T01:21:11.365Z,86.30
2018-05-17T01:22:10.299Z,86.20
2018-05-17T01:23:06.637Z,86.20
2018-05-17T01:24:08.687Z,86.30
2018-05-17T01:25:06.380Z,86.30
2018-05-17T01:26:08.547Z,86.40
2018-05-17T01:27:11.127Z,86.60
2018-05-17T01:28:10.633Z,86.60
2018-05-17T01:29:06.230Z,86.50
2018-05-17T01:30:06.563Z,86.40
2018-05-17T01:31:06.507Z,86.30
2018-05-17T01:32:09.627Z,86.40
2018-05-17T01:33:06.361Z,86.40
2018-05-17T01:34:06.647Z,86.50
2018-05-17T01:35:08.408Z,86.40
2018-05-17T01:36:06.117Z,86.40
2018-05-17T01:37:10.911Z,86.40
2018-05-17T01:38:06.207Z,86.40
2018-05-17T01:39:11.186Z,86.40
2018-05-17T01:40:05.523Z,86.40
2018-05-17T01:41:06.473Z,86.40
2018-05-17T01:42:10.899Z,86.60
2018-05-17T01:43:09.899Z,86.80
2018-05-17T01:44:11.661Z,87.30
2018-05-17T01:45:06.152Z,87.30
2018-05-17T01:46:05.940Z,87.20
2018-05-17T01:47:06.138Z,87.40
2018-05-17T01:48:08.333Z,87.20
2018-05-17T01:49:10.872Z,87.20
2018-05-17T01:50:08.899Z,87.20
2018-05-17T01:51:06.658Z,87.20
2018-05-17T01:52:06.724Z,87.20
2018-05-17T01:53:09.035Z,87.10
2018-05-17T01:54:06.789Z,87.10
2018-05-17T01:55:06.723Z,87.10
2018-05-17T01:56:09.771Z,86.90
2018-05-17T01:57:06.371Z,86.90
2018-05-17T01:58:13.974Z,86.90
2018-05-17T01:59:13.059Z,86.90
2018-05-17T02:00:05.761Z,86.90
2018-05-17T02:01:08.541Z,86.90
2018-05-17T02:02:09.418Z,86.90
2018-05-17T02:03:06.266Z,86.90
2018-05-17T02:04:06.214Z,87.10
2018-05-17T02:05:14.048Z,87.00
2018-05-17T02:06:08.201Z,86.90
2018-05-17T02:07:05.754Z,86.90
2018-05-17T02:08:08.160Z,87.00
2018-05-17T02:09:08.215Z,87.00
2018-05-17T02:10:05.664Z,87.10
2018-05-17T02:11:08.851Z,87.10
2018-05-17T02:12:10.711Z,87.10
2018-05-17T02:13:09.422Z,87.00
2018-05-17T02:14:13.784Z,87.00
2018-05-17T02:15:11.357Z,86.90
2018-05-17T02:16:14.023Z,86.90
2018-05-17T02:17:05.515Z,86.90
2018-05-17T02:18:06.380Z,86.90
2018-05-17T02:19:08.524Z,86.90
2018-05-17T02:20:11.077Z,87.10
2018-05-17T02:21:07.983Z,87.00
2018-05-17T02:22:10.802Z,87.00
2018-05-17T02:23:06.201Z,87.00
2018-05-17T02:24:06.068Z,87.10
2018-05-17T02:25:06.268Z,87.00
2018-05-17T02:26:07.981Z,87.10
2018-05-17T02:27:06.386Z,87.10
2018-05-17T02:28:08.196Z,87.20
2018-05-17T02:29:08.331Z,87.20
2018-05-17T02:30:05.908Z,87.10
2018-05-17T02:31:10.582Z,87.20
2018-05-17T02:32:05.959Z,87.20
2018-05-17T02:33:06.128Z,87.40
2018-05-17T02:34:08.041Z,87.40
2018-05-17T02:35:05.521Z,87.30
2018-05-17T02:36:08.637Z,87.40
2018-05-17T02:37:06.760Z,87.40
2018-05-17T02:38:06.576Z,87.40
2018-05-17T02:39:10.844Z,87.40
2018-05-17T02:40:11.566Z,87.40
2018-05-17T02:41:09.575Z,87.40
2018-05-17T02:42:11.183Z,87.40
2018-05-17T02:43:05.735Z,87.40
2018-05-17T02:44:15.069Z,87.50
2018-05-17T02:45:06.172Z,87.40
2018-05-17T02:46:05.758Z,87.40
2018-05-17T02:47:08.130Z,87.40
2018-05-17T02:48:05.991Z,87.40
2018-05-17T02:49:16.725Z,87.40
2018-05-17T02:50:06.052Z,87.40
2018-05-17T02:51:06.163Z,87.50
2018-05-17T02:52:10.705Z,87.50
2018-05-17T02:53:05.982Z,87.60
2018-05-17T02:54:11.220Z,87.70
2018-05-17T02:55:10.920Z,87.70
2018-05-17T02:56:06.964Z,87.70
2018-05-17T02:57:08.251Z,87.60
2018-05-17T02:58:05.832Z,87.60
2018-05-17T02:59:09.324Z,87.70
2018-05-17T03:00:08.617Z,87.70
2018-05-17T03:01:06.135Z,87.60
2018-05-17T03:02:05.678Z,87.70
2018-05-17T03:03:06.157Z,87.70
2018-05-17T03:04:11.015Z,87.70
2018-05-17T03:05:08.960Z,87.70
2018-05-17T03:06:10.248Z,87.80
2018-05-17T03:07:08.897Z,87.80
2018-05-17T03:08:05.922Z,87.80
2018-05-17T03:09:10.890Z,87.80
2018-05-17T03:10:06.229Z,87.70
2018-05-17T03:11:06.327Z,87.70
2018-05-17T03:12:11.177Z,87.70
2018-05-17T03:13:10.899Z,87.70
2018-05-17T03:14:06.549Z,87.70
2018-05-17T03:15:06.722Z,87.70
2018-05-17T03:16:05.965Z,87.70
2018-05-17T03:17:10.694Z,87.70
2018-05-17T03:18:09.341Z,87.70
2018-05-17T03:19:06.025Z,87.70
2018-05-17T03:20:05.963Z,87.80
2018-05-17T03:21:06.064Z,87.90
2018-05-17T03:22:09.326Z,87.80
2018-05-17T03:23:06.072Z,87.70
2018-05-17T03:24:11.235Z,87.90
2018-05-17T03:25:08.260Z,87.90
2018-05-17T03:26:08.454Z,87.90
2018-05-17T03:27:06.206Z,87.90
2018-05-17T03:28:08.984Z,87.80
2018-05-17T03:29:05.934Z,87.90
2018-05-17T03:30:08.513Z,87.80
2018-05-17T03:31:06.451Z,87.80
2018-05-17T03:32:05.663Z,87.80
2018-05-17T03:33:06.585Z,87.80
2018-05-17T03:34:08.553Z,87.90
2018-05-17T03:35:06.675Z,87.90
2018-05-17T03:36:11.601Z,87.80
2018-05-17T03:37:06.199Z,87.80
2018-05-17T03:38:09.648Z,87.80
2018-05-17T03:39:13.855Z,87.80
2018-05-17T03:40:06.419Z,87.80
2018-05-17T03:41:08.865Z,87.90
2018-05-17T03:42:11.599Z,87.90
2018-05-17T03:43:11.159Z,87.80
2018-05-17T03:44:05.727Z,87.80
2018-05-17T03:45:09.491Z,87.90
2018-05-17T03:46:10.728Z,87.90
2018-05-17T03:47:06.489Z,87.90
2018-05-17T03:48:06.293Z,88.00
2018-05-17T03:49:10.943Z,88.00
2018-05-17T03:50:06.592Z,88.00
2018-05-17T03:51:11.410Z,88.00
2018-05-17T03:52:08.109Z,88.10
2018-05-17T03:53:13.438Z,88.20
2018-05-17T03:54:08.467Z,88.20
2018-05-17T03:55:09.445Z,88.20
2018-05-17T03:56:06.317Z,88.20
2018-05-17T03:57:06.324Z,88.10
2018-05-17T03:58:11.050Z,88.30
2018-05-17T03:59:05.569Z,88.30
2018-05-17T04:00:11.199Z,88.30
2018-05-17T04:01:06.452Z,88.30
2018-05-17T04:02:05.974Z,88.30
2018-05-17T04:03:05.916Z,88.30
2018-05-17T04:04:13.553Z,88.40
2018-05-17T04:05:07.048Z,88.30
2018-05-17T04:06:06.715Z,88.40
2018-05-17T04:07:06.183Z,88.40
2018-05-17T04:08:08.156Z,88.40
2018-05-17T04:09:07.623Z,88.40
2018-05-17T04:10:08.154Z,88.50
2018-05-17T04:11:05.939Z,88.60
2018-05-17T04:12:05.767Z,88.60
2018-05-17T04:13:05.920Z,88.60
2018-05-17T04:14:05.903Z,88.60
2018-05-17T04:15:06.342Z,88.60
2018-05-17T04:16:06.904Z,88.70
2018-05-17T04:17:06.415Z,88.60
2018-05-17T04:18:06.237Z,88.60
2018-05-17T04:19:08.874Z,88.60
2018-05-17T04:20:06.445Z,88.60
2018-05-17T04:21:10.701Z,88.50
2018-05-17T04:22:06.279Z,88.60
2018-05-17T04:23:06.169Z,88.60
2018-05-17T04:24:05.886Z,88.60
2018-05-17T04:25:06.705Z,88.60
2018-05-17T04:26:10.812Z,88.60
2018-05-17T04:27:06.287Z,88.60
2018-05-17T04:28:09.523Z,88.50
2018-05-17T04:29:08.739Z,88.40
2018-05-17T04:30:06.388Z,88.40
2018-05-17T04:31:06.120Z,88.50
2018-05-17T04:32:06.140Z,88.50
2018-05-17T04:33:10.953Z,88.40
2018-05-17T04:34:10.781Z,88.40
2018-05-17T04:35:06.361Z,88.40
2018-05-17T04:36:07.118Z,88.40
2018-05-17T04:37:08.312Z,88.40
2018-05-17T04:38:09.016Z,88.40
2018-05-17T04:39:09.111Z,88.30
2018-05-17T04:40:05.914Z,88.40
2018-05-17T04:41:06.425Z,88.30
2018-05-17T04:42:08.872Z,88.30
2018-05-17T04:43:08.292Z,88.30
2018-05-17T04:44:06.220Z,88.30
2018-05-17T04:45:06.738Z,88.30
2018-05-17T04:46:05.593Z,88.10
2018-05-17T04:47:06.035Z,88.30
2018-05-17T04:48:09.828Z,88.30
2018-05-17T04:49:10.720Z,88.10
2018-05-17T04:50:09.863Z,88.20
2018-05-17T04:51:09.731Z,88.20
2018-05-17T04:52:06.335Z,88.30
2018-05-17T04:53:06.682Z,88.20
2018-05-17T04:54:06.360Z,88.10
2018-05-17T04:55:06.263Z,88.10
2018-05-17T04:56:11.159Z,88.10
2018-05-17T04:57:05.873Z,88.10
2018-05-17T04:58:11.429Z,88.10
2018-05-17T04:59:08.469Z,88.10
2018-05-17T05:00:06.282Z,88.10
2018-05-17T05:01:06.541Z,88.10
2018-05-17T05:02:06.264Z,88.10
2018-05-17T05:03:09.387Z,87.90
2018-05-17T05:04:06.160Z,87.90
2018-05-17T05:05:06.224Z,88.00
2018-05-17T05:06:09.185Z,88.00
2018-05-17T05:07:08.395Z,88.00
2018-05-17T05:08:06.124Z,88.00
2018-05-17T05:09:14.210Z,88.00
2018-05-17T05:10:08.241Z,87.90
2018-05-17T05:11:12.443Z,87.90
2018-05-17T05:12:11.182Z,87.90
2018-05-17T05:13:07.429Z,87.80
2018-05-17T05:14:05.695Z,87.80
2018-05-17T05:15:05.673Z,87.90
2018-05-17T05:16:09.236Z,87.90
2018-05-17T05:17:10.904Z,87.80
2018-05-17T05:18:06.106Z,87.80
2018-05-17T05:19:05.777Z,87.80
2018-05-17T05:20:06.559Z,87.70
2018-05-17T05:21:11.913Z,87.70
2018-05-17T05:22:11.303Z,87.70
2018-05-17T05:23:05.718Z,87.70
2018-05-17T05:24:06.871Z,87.70
2018-05-17T05:25:06.434Z,87.70
2018-05-17T05:26:05.845Z,87.60
2018-05-17T05:27:06.386Z,87.50
2018-05-17T05:28:06.311Z,87.50
2018-05-17T05:29:08.891Z,87.40
2018-05-17T05:30:11.626Z,87.40
2018-05-17T05:31:06.467Z,87.40
2018-05-17T05:32:06.123Z,87.40
2018-05-17T05:33:05.614Z,87.40
2018-05-17T05:34:09.402Z,87.50
2018-05-17T05:35:05.995Z,87.40
2018-05-17T05:36:06.576Z,87.40
2018-05-17T05:37:08.969Z,87.40
2018-05-17T05:38:08.835Z,87.50
2018-05-17T05:39:12.158Z,87.50
2018-05-17T05:40:10.992Z,87.50
2018-05-17T05:41:05.661Z,87.50
2018-05-17T05:42:08.535Z,87.60
2018-05-17T05:43:06.090Z,87.60
2018-05-17T05:44:09.489Z,87.60
2018-05-17T05:45:05.953Z,87.60
2018-05-17T05:46:08.939Z,87.70
2018-05-17T05:47:10.026Z,87.70
2018-05-17T05:48:05.594Z,87.60
2018-05-17T05:49:08.890Z,87.60
2018-05-17T05:50:08.990Z,87.40
2018-05-17T05:51:06.502Z,87.40
2018-05-17T05:52:13.333Z,87.50
2018-05-17T05:53:06.383Z,87.50
2018-05-17T05:54:10.774Z,87.40
2018-05-17T05:55:06.353Z,87.30
2018-05-17T05:56:06.550Z,87.40
2018-05-17T05:57:08.213Z,87.40
2018-05-17T05:58:05.840Z,87.30
2018-05-17T05:59:08.397Z,87.40
2018-05-17T06:00:06.346Z,87.30
2018-05-17T06:01:06.536Z,87.40
2018-05-17T06:02:08.676Z,87.20
2018-05-17T06:03:06.297Z,87.20
2018-05-17T06:04:06.416Z,87.20
2018-05-17T06:05:08.777Z,87.20
2018-05-17T06:06:06.862Z,87.20
2018-05-17T06:07:14.125Z,87.20
2018-05-17T06:08:06.214Z,87.30
2018-05-17T06:09:05.850Z,87.20
2018-05-17T06:10:06.023Z,87.00
2018-05-17T06:11:06.493Z,87.20
2018-05-17T06:12:09.139Z,87.10
2018-05-17T06:13:09.840Z,87.00
2018-05-17T06:14:06.095Z,86.90
2018-05-17T06:15:19.556Z,86.90
2018-05-17T06:16:11.152Z,86.90
2018-05-17T06:17:06.064Z,87.00
2018-05-17T06:18:10.420Z,87.00
2018-05-17T06:19:05.821Z,86.90
2018-05-17T06:20:05.885Z,87.10
2018-05-17T06:21:09.316Z,86.80
2018-05-17T06:22:10.580Z,86.80
2018-05-17T06:23:05.940Z,86.80
2018-05-17T06:24:11.456Z,86.90
2018-05-17T06:25:06.635Z,86.90
2018-05-17T06:26:06.155Z,86.90
2018-05-17T06:27:11.338Z,86.90
2018-05-17T06:28:06.192Z,86.90
2018-05-17T06:29:05.888Z,86.90
2018-05-17T06:30:10.839Z,86.80
2018-05-17T06:31:08.817Z,86.80
2018-05-17T06:32:06.535Z,86.90
2018-05-17T06:33:06.646Z,86.90
2018-05-17T06:34:07.559Z,86.90
2018-05-17T06:35:06.281Z,86.90
2018-05-17T06:36:08.635Z,86.90
2018-05-17T06:37:06.629Z,86.90
2018-05-17T06:38:08.969Z,86.80
2018-05-17T06:39:05.681Z,86.80
2018-05-17T06:40:06.612Z,86.70
2018-05-17T06:41:05.913Z,86.80
2018-05-17T06:42:06.078Z,86.70
2018-05-17T06:43:06.402Z,86.60
2018-05-17T06:44:08.117Z,86.60
2018-05-17T06:45:08.348Z,86.60
2018-05-17T06:46:05.921Z,86.60
2018-05-17T06:47:08.315Z,86.60
2018-05-17T06:48:09.176Z,86.60
2018-05-17T06:49:10.774Z,86.60
2018-05-17T06:50:08.833Z,86.50
2018-05-17T06:51:06.641Z,86.50
2018-05-17T06:52:06.132Z,86.60
2018-05-17T06:53:11.052Z,86.50
2018-05-17T06:54:05.894Z,86.50
2018-05-17T06:55:06.496Z,86.50
2018-05-17T06:56:05.818Z,86.50
2018-05-17T06:57:10.794Z,86.50
2018-05-17T06:58:11.334Z,86.50
2018-05-17T06:59:06.014Z,86.60
2018-05-17T07:00:06.051Z,86.50
2018-05-17T07:01:10.714Z,86.40
2018-05-17T07:02:08.916Z,86.50
2018-05-17T07:03:06.562Z,86.40
2018-05-17T07:04:06.438Z,86.10
2018-05-17T07:05:11.489Z,85.80
2018-05-17T07:06:06.298Z,85.80
2018-05-17T07:07:08.944Z,85.90
2018-05-17T07:08:05.907Z,85.90
2018-05-17T07:09:06.872Z,85.90
2018-05-17T07:10:11.067Z,86.00
2018-05-17T07:11:08.198Z,86.00
2018-05-17T07:12:08.389Z,86.10
2018-05-17T07:13:06.847Z,86.10
2018-05-17T07:14:05.662Z,86.10
2018-05-17T07:15:05.704Z,86.10
2018-05-17T07:16:05.797Z,86.10
2018-05-17T07:17:05.779Z,86.10
2018-05-17T07:18:06.574Z,86.10
2018-05-17T07:19:06.185Z,86.10
2018-05-17T07:20:10.761Z,85.70
2018-05-17T07:21:06.544Z,85.90
2018-05-17T07:22:06.426Z,85.90
2018-05-17T07:23:06.119Z,85.80
2018-05-17T07:24:06.593Z,85.70
2018-05-17T07:25:05.968Z,85.60
2018-05-17T07:26:05.973Z,85.50
2018-05-17T07:27:08.714Z,85.60
2018-05-17T07:28:06.717Z,85.60
2018-05-17T07:29:06.470Z,85.50
2018-05-17T07:30:10.692Z,85.50
2018-05-17T07:31:11.492Z,85.60
2018-05-17T07:32:06.372Z,85.50
2018-05-17T07:33:14.804Z,85.60
2018-05-17T07:34:06.974Z,85.60
2018-05-17T07:35:11.237Z,85.50
2018-05-17T07:36:06.213Z,85.50
2018-05-17T07:37:10.920Z,85.50
2018-05-17T07:38:05.878Z,85.30
2018-05-17T07:39:06.219Z,85.30
2018-05-17T07:40:06.333Z,85.30
2018-05-17T07:41:11.611Z,85.40
2018-05-17T07:42:13.410Z,85.40
2018-05-17T07:43:06.378Z,85.40
2018-05-17T07:44:06.732Z,85.40
2018-05-17T07:45:06.960Z,85.40
2018-05-17T07:46:10.777Z,85.40
2018-05-17T07:47:09.089Z,85.40
2018-05-17T07:48:06.042Z,85.40
2018-05-17T07:49:08.125Z,34.20
2018-05-17T07:50:08.215Z,85.20
2018-05-17T07:51:06.480Z,85.30
2018-05-17T07:52:11.054Z,85.20
2018-05-17T07:53:15.677Z,85.20
2018-05-17T07:54:06.283Z,85.20
2018-05-17T07:55:06.207Z,85.20
2018-05-17T07:56:06.637Z,84.90
2018-05-17T07:57:08.193Z,84.80
2018-05-17T07:58:11.659Z,84.70
2018-05-17T07:59:06.267Z,84.90
2018-05-17T08:00:07.300Z,84.90
2018-05-17T08:01:06.387Z,84.90
2018-05-17T08:02:06.941Z,84.90
2018-05-17T08:03:05.728Z,84.90
2018-05-17T08:04:06.066Z,84.90
2018-05-17T08:05:05.969Z,84.90
2018-05-17T08:06:11.072Z,84.90
2018-05-17T08:07:05.634Z,84.90
2018-05-17T08:08:06.284Z,84.90
2018-05-17T08:09:05.891Z,84.80
2018-05-17T08:10:05.979Z,84.80
2018-05-17T08:11:10.743Z,84.70
2018-05-17T08:12:07.403Z,84.70
2018-05-17T08:13:06.301Z,84.70
2018-05-17T08:14:06.373Z,84.70
2018-05-17T08:15:10.830Z,84.50
2018-05-17T08:16:09.905Z,84.50
2018-05-17T08:17:08.939Z,84.50
2018-05-17T08:18:05.612Z,84.50
2018-05-17T08:19:06.111Z,84.50
2018-05-17T08:20:06.444Z,84.40
2018-05-17T08:21:11.164Z,84.30
2018-05-17T08:22:10.817Z,84.30
2018-05-17T08:23:09.732Z,84.20
2018-05-17T08:24:06.358Z,84.20
2018-05-17T08:25:06.201Z,84.20
2018-05-17T08:26:08.724Z,84.20
2018-05-17T08:27:06.375Z,84.20
2018-05-17T08:28:05.957Z,84.20
2018-05-17T08:29:11.656Z,84.40
2018-05-17T08:30:06.770Z,84.30
2018-05-17T08:31:09.027Z,84.50
2018-05-17T08:32:08.869Z,84.50
2018-05-17T08:33:07.412Z,84.50
2018-05-17T08:34:11.206Z,84.20
2018-05-17T08:35:05.770Z,84.10
2018-05-17T08:36:06.131Z,83.90
2018-05-17T08:37:08.414Z,84.00
2018-05-17T08:38:08.487Z,84.00
2018-05-17T08:39:06.156Z,84.00
2018-05-17T08:40:08.625Z,84.00
2018-05-17T08:41:06.375Z,84.00
2018-05-17T08:42:06.185Z,84.00
2018-05-17T08:43:08.515Z,84.00
2018-05-17T08:44:08.507Z,83.80
2018-05-17T08:45:08.901Z,83.70
2018-05-17T08:46:06.499Z,83.70
2018-05-17T08:47:11.389Z,83.30
2018-05-17T08:48:06.436Z,83.30
2018-05-17T08:49:06.599Z,83.30
2018-05-17T08:50:06.347Z,83.20
2018-05-17T08:51:08.856Z,83.00
2018-05-17T08:52:11.359Z,83.00
2018-05-17T08:53:05.888Z,83.00
2018-05-17T08:54:06.560Z,83.10
2018-05-17T08:55:05.903Z,83.20
2018-05-17T08:56:05.851Z,83.20
2018-05-17T08:57:05.797Z,83.20
2018-05-17T08:58:06.170Z,83.20
2018-05-17T08:59:11.134Z,83.20
2018-05-17T09:00:11.263Z,83.20
2018-05-17T09:01:06.243Z,83.30
2018-05-17T09:02:06.428Z,83.20
2018-05-17T09:03:06.391Z,83.20
2018-05-17T09:04:06.506Z,83.20
2018-05-17T09:05:08.510Z,83.20
2018-05-17T09:06:11.247Z,83.10
2018-05-17T09:07:11.279Z,83.00
2018-05-17T09:08:10.815Z,83.00
2018-05-17T09:09:06.042Z,83.00
2018-05-17T09:10:09.421Z,83.00
2018-05-17T09:11:07.150Z,83.00
2018-05-17T09:12:05.423Z,82.70
2018-05-17T09:13:11.203Z,82.30
2018-05-17T09:14:06.281Z,82.30
2018-05-17T09:15:11.615Z,82.90
2018-05-17T09:16:06.731Z,82.70
2018-05-17T09:17:11.319Z,82.30
2018-05-17T09:18:10.873Z,82.30
2018-05-17T09:19:06.872Z,82.30
2018-05-17T09:20:10.806Z,82.20
2018-05-17T09:21:11.662Z,82.40
2018-05-17T09:22:10.066Z,82.30
2018-05-17T09:23:09.622Z,82.30
2018-05-17T09:24:08.843Z,82.10
2018-05-17T09:25:06.485Z,82.20
2018-05-17T09:26:11.571Z,82.30
2018-05-17T09:27:06.117Z,82.30
2018-05-17T09:28:09.514Z,82.50
2018-05-17T09:29:12.276Z,82.50
2018-05-17T09:30:06.241Z,82.50
2018-05-17T09:31:05.963Z,82.50
2018-05-17T09:32:06.063Z,82.50
2018-05-17T09:33:05.869Z,82.60
2018-05-17T09:34:06.836Z,82.50
2018-05-17T09:35:06.390Z,82.70
2018-05-17T09:36:06.354Z,82.60
2018-05-17T09:37:06.057Z,82.50
2018-05-17T09:38:10.647Z,82.50
2018-05-17T09:39:06.540Z,82.20
2018-05-17T09:40:06.254Z,82.10
2018-05-17T09:41:05.890Z,82.10
2018-05-17T09:42:05.741Z,81.80
2018-05-17T09:43:06.769Z,81.90
2018-05-17T09:44:05.991Z,81.80
2018-05-17T09:45:05.770Z,81.70
2018-05-17T09:46:07.307Z,81.40
2018-05-17T09:47:11.015Z,81.30
2018-05-17T09:48:11.093Z,81.30
2018-05-17T09:49:05.450Z,81.40
2018-05-17T09:50:06.674Z,81.50
2018-05-17T09:51:09.467Z,81.10
2018-05-17T09:52:09.971Z,81.10
2018-05-17T09:53:05.777Z,81.10
2018-05-17T09:54:06.475Z,81.30
2018-05-17T09:55:06.811Z,81.00
2018-05-17T09:56:10.604Z,81.20
2018-05-17T09:57:06.379Z,81.10
2018-05-17T09:58:08.573Z,80.50
2018-05-17T09:59:06.412Z,80.40
2018-05-17T10:00:06.199Z,80.10
2018-05-17T10:01:08.284Z,80.50
2018-05-17T10:02:10.953Z,80.50
2018-05-17T10:03:06.474Z,80.50
2018-05-17T10:04:11.885Z,80.50
2018-05-17T10:05:11.403Z,80.40
2018-05-17T10:06:06.290Z,80.40
2018-05-17T10:07:08.499Z,80.30
2018-05-17T10:08:08.499Z,80.50
2018-05-17T10:09:06.191Z,80.50
2018-05-17T10:10:10.818Z,80.70
2018-05-17T10:11:11.676Z,80.80
2018-05-17T10:12:06.908Z,80.60
2018-05-17T10:13:16.327Z,80.00
2018-05-17T10:14:08.368Z,80.00
2018-05-17T10:15:05.900Z,79.90
2018-05-17T10:16:06.052Z,79.60
2018-05-17T10:17:09.454Z,79.50
2018-05-17T10:18:09.157Z,79.60
2018-05-17T10:19:08.580Z,79.60
2018-05-17T10:20:08.843Z,79.40
2018-05-17T10:21:11.330Z,79.50
2018-05-17T10:22:05.933Z,79.40
2018-05-17T10:23:11.798Z,79.50
2018-05-17T10:24:05.859Z,79.50
2018-05-17T10:25:08.419Z,79.40
2018-05-17T10:26:06.109Z,79.40
2018-05-17T10:27:06.107Z,79.10
2018-05-17T10:28:06.670Z,79.10
2018-05-17T10:29:06.614Z,78.80
2018-05-17T10:30:06.739Z,78.10
2018-05-17T10:31:06.477Z,78.30
2018-05-17T10:32:06.055Z,78.40
2018-05-17T10:33:09.696Z,78.40
2018-05-17T10:34:06.436Z,78.30
2018-05-17T10:35:06.177Z,77.90
2018-05-17T10:36:06.464Z,77.80
2018-05-17T10:37:08.430Z,76.90
2018-05-17T10:38:10.370Z,77.00
2018-05-17T10:39:06.424Z,76.90
2018-05-17T10:40:11.317Z,77.20
2018-05-17T10:41:10.847Z,77.20
2018-05-17T10:42:14.000Z,76.10
2018-05-17T10:43:05.627Z,76.10
2018-05-17T10:44:11.286Z,76.50
2018-05-17T10:45:08.252Z,76.80
2018-05-17T10:46:05.882Z,76.90
2018-05-17T10:47:05.767Z,77.00
2018-05-17T10:48:08.513Z,76.50
2018-05-17T10:49:06.023Z,76.60
2018-05-17T10:50:06.050Z,76.40
2018-05-17T10:51:05.665Z,75.70
2018-05-17T10:52:06.518Z,75.70
2018-05-17T10:53:13.261Z,75.50
2018-05-17T10:54:05.937Z,75.50
2018-05-17T10:55:08.570Z,75.40
2018-05-17T10:56:11.150Z,75.50
2018-05-17T10:57:06.792Z,75.50
2018-05-17T10:58:09.928Z,75.50
2018-05-17T10:59:08.409Z,74.60
2018-05-17T11:00:08.243Z,74.40
2018-05-17T11:01:06.042Z,74.40
2018-05-17T11:02:10.513Z,74.50
2018-05-17T11:03:06.389Z,74.50
2018-05-17T11:04:06.726Z,74.40
2018-05-17T11:05:08.644Z,75.00
2018-05-17T11:06:08.712Z,75.00
2018-05-17T11:07:10.873Z,75.10
2018-05-17T11:08:06.563Z,75.10
2018-05-17T11:09:11.160Z,74.30
2018-05-17T11:10:06.340Z,74.30
2018-05-17T11:11:06.255Z,73.60
2018-05-17T11:12:11.407Z,74.00
2018-05-17T11:13:06.537Z,74.10
2018-05-17T11:14:08.747Z,73.90
2018-05-17T11:15:06.290Z,73.90
2018-05-17T11:16:10.849Z,73.90
2018-05-17T11:17:09.036Z,74.00
2018-05-17T11:18:09.627Z,73.80
2018-05-17T11:19:05.933Z,73.90
2018-05-17T11:20:06.466Z,73.60
2018-05-17T11:21:11.227Z,73.50
2018-05-17T11:22:09.790Z,73.70
2018-05-17T11:23:06.282Z,73.70
2018-05-17T11:24:06.335Z,73.50
2018-05-17T11:25:10.634Z,73.60
2018-05-17T11:26:13.717Z,73.90
2018-05-17T11:27:08.792Z,74.00
2018-05-17T11:28:10.948Z,74.00
2018-05-17T11:29:10.572Z,74.20
2018-05-17T11:30:06.325Z,74.20
2018-05-17T11:31:11.106Z,73.50
2018-05-17T11:32:11.402Z,73.50
2018-05-17T11:33:11.292Z,72.90
2018-05-17T11:34:08.705Z,73.10
2018-05-17T11:35:06.727Z,73.00
2018-05-17T11:36:11.503Z,73.30
2018-05-17T11:37:05.996Z,73.40
2018-05-17T11:38:06.191Z,73.20
2018-05-17T11:39:05.821Z,73.30
2018-05-17T11:40:05.626Z,72.90
2018-05-17T11:41:06.526Z,72.60
2018-05-17T11:42:06.353Z,72.20
2018-05-17T11:43:08.530Z,72.60
2018-05-17T11:44:06.578Z,72.60
2018-05-17T11:45:08.836Z,72.40
2018-05-17T11:46:06.572Z,72.40
2018-05-17T11:47:06.095Z,73.00
2018-05-17T11:48:06.504Z,72.80
2018-05-17T11:49:08.298Z,71.50
2018-05-17T11:50:08.671Z,71.80
2018-05-17T11:51:05.918Z,71.80
2018-05-17T11:52:05.734Z,71.90
2018-05-17T11:53:06.817Z,72.20
2018-05-17T11:54:08.453Z,71.60
2018-05-17T11:55:06.237Z,71.60
2018-05-17T11:56:11.043Z,71.60
2018-05-17T11:57:06.163Z,71.60
2018-05-17T11:58:10.866Z,71.90
2018-05-17T11:59:08.051Z,70.60
2018-05-17T12:00:05.955Z,70.60
2018-05-17T12:01:05.789Z,70.50
2018-05-17T12:02:06.767Z,70.70
2018-05-17T12:03:06.803Z,71.00
2018-05-17T12:04:10.811Z,71.40
2018-05-17T12:05:09.092Z,71.10
2018-05-17T12:06:05.748Z,71.10
2018-05-17T12:07:09.431Z,69.80
2018-05-17T12:08:08.876Z,70.50
2018-05-17T12:09:06.353Z,70.50
2018-05-17T12:10:05.869Z,70.70
2018-05-17T12:11:10.642Z,70.50
2018-05-17T12:12:11.048Z,70.70
2018-05-17T12:13:08.160Z,70.00
2018-05-17T12:14:06.283Z,70.10
2018-05-17T12:15:06.813Z,69.40
2018-05-17T12:16:08.999Z,69.10
2018-05-17T12:17:05.641Z,68.90
2018-05-17T12:18:05.603Z,68.00
2018-05-17T12:19:11.418Z,67.90
2018-05-17T12:20:11.268Z,67.50
2018-05-17T12:21:05.598Z,67.60
2018-05-17T12:22:06.187Z,67.40
2018-05-17T12:23:05.770Z,67.90
2018-05-17T12:24:09.033Z,67.70
2018-05-17T12:25:08.110Z,67.90
2018-05-17T12:26:05.580Z,67.90
2018-05-17T12:27:13.289Z,67.90
2018-05-17T12:28:11.447Z,68.00
2018-05-17T12:29:10.846Z,68.20
2018-05-17T12:30:09.079Z,67.90
2018-05-17T12:31:05.644Z,67.90
2018-05-17T12:32:06.964Z,67.50
2018-05-17T12:33:10.641Z,67.80
2018-05-17T12:34:10.886Z,67.10
2018-05-17T12:35:06.255Z,67.10
2018-05-17T12:36:09.263Z,67.60
2018-05-17T12:37:06.736Z,67.60
2018-05-17T12:38:06.018Z,67.70
2018-05-17T12:39:09.153Z,67.90
2018-05-17T12:40:10.819Z,67.90
2018-05-17T12:41:10.880Z,67.90
2018-05-17T12:42:06.379Z,67.90
2018-05-17T12:43:05.736Z,66.70
2018-05-17T12:44:09.328Z,67.10
2018-05-17T12:45:11.215Z,66.40
2018-05-17T12:46:10.538Z,66.40
2018-05-17T12:47:06.938Z,66.30
2018-05-17T12:48:07.210Z,65.80
2018-05-17T12:49:08.532Z,65.10
2018-05-17T12:50:06.635Z,65.00
2018-05-17T12:51:10.273Z,65.70
2018-05-17T12:52:05.945Z,65.70